Time,TemperatureF,DewpointF,PressureIn,WindDirection,WindDirectionDegrees,WindSpeedMPH,WindSpeedGustMPH,Humidity,HourlyPrecipIn,Conditions,Clouds,dailyrainin,SoftwareType,DateUTC
2013-03-23 00:02:00,36.0,33.0,30.39,NNE,28,0.0,-999.0,87,-99.99,,,-99.99,,2013-03-23 07:02:00,
2013-03-23 00:11:00,36.0,33.0,30.39,NNE,28,0.0,-999.0,87,-99.99,,,-99.99,,2013-03-23 07:11:00,
2013-03-23 00:22:00,36.0,33.0,30.39,NW,312,0.0,-999.0,89,-99.99,,,-99.99,,2013-03-23 07:22:00,
2013-03-23 00:32:00,36.0,33.0,30.39,NW,312,0.0,-999.0,90,-99.99,,,-99.99,,2013-03-23 07:32:00,
2013-03-23 00:42:00,36.0,33.0,30.39,NW,312,0.0,-999.0,90,-99.99,,,-99.99,,2013-03-23 07:42:00,
2013-03-23 00:52:00,35.0,33.0,30.39,NW,312,0.0,-999.0,91,-99.99,,,-99.99,,2013-03-23 07:52:00,
2013-03-23 01:02:00,35.0,33.0,30.40,NW,312,0.0,-999.0,92,-99.99,,,-99.99,,2013-03-23 08:02:00,
2013-03-23 01:12:00,35.0,33.0,30.40,NW,312,0.0,-999.0,92,-99.99,,,-99.99,,2013-03-23 08:12:00,
2013-03-23 01:22:00,35.0,33.0,30.40,NW,312,0.0,-999.0,92,-99.99,,,-99.99,,2013-03-23 08:22:00,
2013-03-23 01:31:00,34.0,32.0,30.40,NW,312,0.0,-999.0,92,-99.99,,,-99.99,,2013-03-23 08:31:00,
2013-03-23 01:42:00,34.0,32.0,30.40,NW,312,0.0,-999.0,92,-99.99,,,-99.99,,2013-03-23 08:42:00,
2013-03-23 01:52:00,35.0,33.0,30.39,NW,312,0.0,-999.0,93,-99.99,,,-99.99,,2013-03-23 08:52:00,
2013-03-23 02:02:00,35.0,33.0,30.40,NW,312,0.0,-999.0,93,-99.99,,,-99.99,,2013-03-23 09:02:00,
2013-03-23 02:11:00,35.0,33.0,30.40,NW,312,0.0,-999.0,93,-99.99,,,-99.99,,2013-03-23 09:11:00,
2013-03-23 02:22:00,35.0,33.0,30.40,NW,312,0.0,-999.0,93,-99.99,,,-99.99,,2013-03-23 09:22:00,
2013-03-23 02:32:00,35.0,33.0,30.40,NW,312,0.0,-999.0,93,-99.99,,,-99.99,,2013-03-23 09:32:00,
2013-03-23 02:42:00,35.0,33.0,30.40,NW,312,0.0,-999.0,93,-99.99,,,-99.99,,2013-03-23 09:42:00,
2013-03-23 02:53:00,35.0,33.0,30.40,NW,312,0.0,-999.0,93,-99.99,,,-99.99,,2013-03-23 09:53:00,
2013-03-23 03:02:00,35.0,33.0,30.40,NW,312,0.0,-999.0,93,-99.99,,,-99.99,,2013-03-23 10:02:00,
2013-03-23 03:12:00,35.0,33.0,30.40,NW,312,0.0,-999.0,93,-99.99,,,-99.99,,2013-03-23 10:12:00,
2013-03-23 03:22:00,35.0,33.0,30.40,NW,312,0.0,-999.0,93,-99.99,,,-99.99,,2013-03-23 10:22:00,
2013-03-23 03:33:00,35.0,33.0,30.40,NW,312,0.0,-999.0,92,-99.99,,,-99.99,,2013-03-23 10:33:00,
2013-03-23 03:42:00,35.0,33.0,30.40,NW,312,0.0,-999.0,92,-99.99,,,-99.99,,2013-03-23 10:42:00,
2013-03-23 03:52:00,35.0,33.0,30.40,NW,312,0.0,-999.0,92,-99.99,,,-99.99,,2013-03-23 10:52:00,
2013-03-23 04:02:00,35.0,33.0,30.40,NW,312,0.0,-999.0,91,-99.99,,,-99.99,,2013-03-23 11:02:00,
2013-03-23 04:12:00,35.0,33.0,30.40,NW,312,0.0,-999.0,91,-99.99,,,-99.99,,2013-03-23 11:12:00,
2013-03-23 04:22:00,34.0,32.0,30.40,NW,312,0.0,-999.0,92,-99.99,,,-99.99,,2013-03-23 11:22:00,
2013-03-23 04:32:00,34.0,32.0,30.40,NW,312,0.0,-999.0,92,-99.99,,,-99.99,,2013-03-23 11:32:00,
2013-03-23 04:41:00,34.0,32.0,30.40,NW,312,0.0,-999.0,92,-99.99,,,-99.99,,2013-03-23 11:41:00,
2013-03-23 04:52:00,34.0,32.0,30.40,NW,312,0.0,-999.0,93,-99.99,,,-99.99,,2013-03-23 11:52:00,
2013-03-23 05:01:00,34.0,32.0,30.40,NW,312,0.0,-999.0,92,-99.99,,,-99.99,,2013-03-23 12:01:00,
2013-03-23 05:12:00,34.0,32.0,30.40,NW,312,0.0,-999.0,92,-99.99,,,-99.99,,2013-03-23 12:12:00,
2013-03-23 05:22:00,34.0,32.0,30.40,NW,312,0.0,-999.0,92,-99.99,,,-99.99,,2013-03-23 12:22:00,
2013-03-23 05:32:00,34.0,32.0,30.40,NW,312,0.0,-999.0,91,-99.99,,,-99.99,,2013-03-23 12:32:00,
2013-03-23 05:42:00,34.0,32.0,30.40,NW,312,0.0,-999.0,91,-99.99,,,-99.99,,2013-03-23 12:42:00,
2013-03-23 05:53:00,34.0,32.0,30.40,NW,312,0.0,-999.0,91,-99.99,,,-99.99,,2013-03-23 12:53:00,
2013-03-23 06:01:00,34.0,32.0,30.40,NW,312,0.0,-999.0,91,-99.99,,,-99.99,,2013-03-23 13:01:00,
2013-03-23 06:11:00,34.0,32.0,30.40,NW,312,0.0,-999.0,91,-99.99,,,-99.99,,2013-03-23 13:11:00,
2013-03-23 06:21:00,34.0,32.0,30.40,NW,312,0.0,-999.0,91,-99.99,,,-99.99,,2013-03-23 13:21:00,
2013-03-23 06:32:00,34.0,32.0,30.40,NW,312,0.0,-999.0,91,-99.99,,,-99.99,,2013-03-23 13:32:00,
2013-03-23 06:42:00,34.0,32.0,30.40,NW,312,0.0,-999.0,91,-99.99,,,-99.99,,2013-03-23 13:42:00,
2013-03-23 06:53:00,34.0,31.0,30.40,NW,312,0.0,-999.0,90,-99.99,,,-99.99,,2013-03-23 13:53:00,
2013-03-23 07:02:00,34.0,32.0,30.40,NW,312,0.0,-999.0,91,-99.99,,,-99.99,,2013-03-23 14:02:00,
2013-03-23 07:11:00,34.0,32.0,30.40,NW,312,0.0,-999.0,91,-99.99,,,-99.99,,2013-03-23 14:11:00,
2013-03-23 07:22:00,34.0,32.0,30.41,NW,312,0.0,-999.0,92,-99.99,,,-99.99,,2013-03-23 14:22:00,
2013-03-23 07:32:00,34.0,32.0,30.40,NW,312,0.0,-999.0,92,-99.99,,,-99.99,,2013-03-23 14:32:00,
2013-03-23 07:42:00,34.0,32.0,30.40,NW,312,0.0,-999.0,92,-99.99,,,-99.99,,2013-03-23 14:42:00,
2013-03-23 07:52:00,34.0,32.0,30.40,NW,312,0.0,-999.0,91,-99.99,,,-99.99,,2013-03-23 14:52:00,
2013-03-23 08:02:00,34.0,32.0,30.41,NW,312,0.0,-999.0,91,-99.99,,,-99.99,,2013-03-23 15:02:00,
2013-03-23 08:11:00,34.0,32.0,30.41,NW,312,0.0,-999.0,91,-99.99,,,-99.99,,2013-03-23 15:11:00,
2013-03-23 08:22:00,34.0,31.0,30.40,NW,312,0.0,-999.0,90,-99.99,,,-99.99,,2013-03-23 15:22:00,
2013-03-23 08:33:00,35.0,32.0,30.40,NW,312,0.0,-999.0,90,-99.99,,,-99.99,,2013-03-23 15:33:00,
2013-03-23 08:43:00,35.0,32.0,30.40,NW,312,0.0,-999.0,90,-99.99,,,-99.99,,2013-03-23 15:43:00,
2013-03-23 08:53:00,36.0,33.0,30.41,NW,312,0.0,-999.0,89,-99.99,,,-99.99,,2013-03-23 15:53:00,
2013-03-23 09:02:00,36.0,33.0,30.40,NW,309,0.0,-999.0,87,-99.99,,,-99.99,,2013-03-23 16:02:00,
2013-03-23 09:12:00,36.0,33.0,30.40,NW,309,0.0,-999.0,87,-99.99,,,-99.99,,2013-03-23 16:12:00,
2013-03-23 09:22:00,37.0,33.0,30.40,NW,309,0.0,-999.0,86,-99.99,,,-99.99,,2013-03-23 16:22:00,
2013-03-23 09:32:00,37.0,33.0,30.41,NW,309,0.0,-999.0,85,-99.99,,,-99.99,,2013-03-23 16:32:00,
2013-03-23 09:42:00,37.0,33.0,30.41,NW,309,0.0,-999.0,85,-99.99,,,-99.99,,2013-03-23 16:42:00,
2013-03-23 09:53:00,38.0,33.0,30.40,North,11,0.0,-999.0,83,-99.99,,,-99.99,,2013-03-23 16:53:00,
2013-03-23 10:02:00,39.0,34.0,30.40,North,11,0.0,-999.0,82,-99.99,,,-99.99,,2013-03-23 17:02:00,
2013-03-23 10:11:00,39.0,34.0,30.41,NNE,12,0.0,-999.0,82,-99.99,,,-99.99,,2013-03-23 17:11:00,
2013-03-23 10:22:00,39.0,34.0,30.41,NNE,12,0.0,-999.0,82,-99.99,,,-99.99,,2013-03-23 17:22:00,
2013-03-23 10:32:00,39.0,34.0,30.41,North,355,0.0,-999.0,81,-99.99,,,-99.99,,2013-03-23 17:32:00,
2013-03-23 10:42:00,39.0,34.0,30.41,North,355,0.0,-999.0,81,-99.99,,,-99.99,,2013-03-23 17:42:00,
2013-03-23 10:52:00,41.0,35.0,30.40,North,360,0.0,-999.0,80,-99.99,,,-99.99,,2013-03-23 17:52:00,
2013-03-23 11:02:00,41.0,36.0,30.40,NNW,331,0.0,-999.0,82,-99.99,,,-99.99,,2013-03-23 18:02:00,
2013-03-23 11:12:00,41.0,36.0,30.40,NNW,331,0.0,-999.0,82,-99.99,,,-99.99,,2013-03-23 18:12:00,
2013-03-23 11:22:00,41.0,35.0,30.40,West,276,0.0,-999.0,80,-99.99,,,-99.99,,2013-03-23 18:22:00,
2013-03-23 11:31:00,41.0,36.0,30.40,WNW,302,0.0,-999.0,81,-99.99,,,-99.99,,2013-03-23 18:31:00,
2013-03-23 11:42:00,41.0,36.0,30.40,WNW,302,0.0,-999.0,81,-99.99,,,-99.99,,2013-03-23 18:42:00,
2013-03-23 11:53:00,44.0,35.0,30.40,SSW,206,0.0,-999.0,71,-99.99,,,-99.99,,2013-03-23 18:53:00,
2013-03-23 12:02:00,44.0,34.0,30.40,West,272,0.0,-999.0,68,-99.99,,,-99.99,,2013-03-23 19:02:00,
2013-03-23 12:12:00,44.0,34.0,30.40,West,272,0.0,-999.0,68,-99.99,,,-99.99,,2013-03-23 19:12:00,
2013-03-23 12:22:00,45.0,37.0,30.39,West,277,0.0,-999.0,72,-99.99,,,-99.99,,2013-03-23 19:22:00,
2013-03-23 12:32:00,47.0,39.0,30.39,West,266,0.0,-999.0,73,-99.99,,,-99.99,,2013-03-23 19:32:00,
2013-03-23 12:42:00,47.0,39.0,30.39,West,266,0.0,-999.0,73,-99.99,,,-99.99,,2013-03-23 19:42:00,
2013-03-23 12:53:00,47.0,37.0,30.39,West,280,0.0,-999.0,68,-99.99,,,-99.99,,2013-03-23 19:53:00,
2013-03-23 13:02:00,48.0,37.0,30.38,WSW,238,0.0,-999.0,65,-99.99,,,-99.99,,2013-03-23 20:02:00,
2013-03-23 13:12:00,48.0,37.0,30.38,WSW,238,0.0,-999.0,65,-99.99,,,-99.99,,2013-03-23 20:12:00,
2013-03-23 13:22:00,47.0,35.0,30.37,WNW,303,1.0,-999.0,64,-99.99,,,-99.99,,2013-03-23 20:22:00,
2013-03-23 13:32:00,49.0,37.0,30.37,West,273,0.0,-999.0,62,-99.99,,,-99.99,,2013-03-23 20:32:00,
2013-03-23 13:42:00,49.0,37.0,30.37,West,273,0.0,-999.0,62,-99.99,,,-99.99,,2013-03-23 20:42:00,
2013-03-23 13:52:00,49.0,34.0,30.37,WSW,249,0.0,-999.0,55,-99.99,,,-99.99,,2013-03-23 20:52:00,
2013-03-23 14:02:00,49.0,32.0,30.36,WSW,247,0.0,-999.0,51,-99.99,,,-99.99,,2013-03-23 21:02:00,
2013-03-23 14:12:00,49.0,32.0,30.36,WSW,247,0.0,-999.0,51,-99.99,,,-99.99,,2013-03-23 21:12:00,
2013-03-23 14:22:00,49.0,35.0,30.36,SSE,160,0.0,-999.0,58,-99.99,,,-99.99,,2013-03-23 21:22:00,
2013-03-23 14:32:00,49.0,32.0,30.36,SSE,153,1.0,-999.0,52,-99.99,,,-99.99,,2013-03-23 21:32:00,
2013-03-23 14:42:00,49.0,32.0,30.36,SSE,153,1.0,-999.0,52,-99.99,,,-99.99,,2013-03-23 21:42:00,
2013-03-23 14:53:00,48.0,34.0,30.35,NW,305,1.0,-999.0,57,-99.99,,,-99.99,,2013-03-23 21:53:00,
2013-03-23 15:02:00,47.0,32.0,30.35,NNW,327,0.0,-999.0,55,-99.99,,,-99.99,,2013-03-23 22:02:00,
2013-03-23 15:12:00,47.0,32.0,30.35,NNW,327,0.0,-999.0,55,-99.99,,,-99.99,,2013-03-23 22:12:00,
2013-03-23 15:22:00,48.0,33.0,30.35,North,355,0.0,-999.0,56,-99.99,,,-99.99,,2013-03-23 22:22:00,
2013-03-23 15:32:00,48.0,32.0,30.35,NNE,22,0.0,-999.0,53,-99.99,,,-99.99,,2013-03-23 22:32:00,
2013-03-23 15:42:00,48.0,32.0,30.35,NNE,22,0.0,-999.0,53,-99.99,,,-99.99,,2013-03-23 22:42:00,
2013-03-23 15:53:00,48.0,31.0,30.34,NW,316,0.0,-999.0,52,-99.99,,,-99.99,,2013-03-23 22:53:00,
2013-03-23 16:02:00,48.0,30.0,30.34,WNW,298,0.0,-999.0,50,-99.99,,,-99.99,,2013-03-23 23:02:00,
2013-03-23 16:12:00,48.0,30.0,30.34,WNW,298,0.0,-999.0,50,-99.99,,,-99.99,,2013-03-23 23:12:00,
2013-03-23 16:22:00,48.0,29.0,30.34,NW,315,0.0,-999.0,47,-99.99,,,-99.99,,2013-03-23 23:22:00,
2013-03-23 16:32:00,48.0,28.0,30.33,NNE,31,0.0,-999.0,46,-99.99,,,-99.99,,2013-03-23 23:32:00,
2013-03-23 16:42:00,48.0,28.0,30.33,NNE,31,0.0,-999.0,46,-99.99,,,-99.99,,2013-03-23 23:42:00,
2013-03-23 16:52:00,49.0,29.0,30.33,East,82,0.0,-999.0,45,-99.99,,,-99.99,,2013-03-23 23:52:00,
2013-03-23 17:01:00,49.0,30.0,30.33,SE,145,0.0,-999.0,47,-99.99,,,-99.99,,2013-03-24 00:01:00,
2013-03-23 17:12:00,49.0,30.0,30.33,SE,145,0.0,-999.0,47,-99.99,,,-99.99,,2013-03-24 00:12:00,
2013-03-23 17:22:00,48.0,28.0,30.32,NNE,26,1.0,-999.0,46,-99.99,,,-99.99,,2013-03-24 00:22:00,
2013-03-23 17:32:00,48.0,29.0,30.32,NE,43,1.0,-999.0,48,-99.99,,,-99.99,,2013-03-24 00:32:00,
2013-03-23 17:41:00,48.0,29.0,30.32,NE,43,1.0,-999.0,48,-99.99,,,-99.99,,2013-03-24 00:41:00,
2013-03-23 17:52:00,48.0,28.0,30.32,North,349,0.0,-999.0,46,-99.99,,,-99.99,,2013-03-24 00:52:00,
2013-03-23 18:02:00,48.0,29.0,30.32,North,349,0.0,-999.0,47,-99.99,,,-99.99,,2013-03-24 01:02:00,
2013-03-23 18:12:00,48.0,29.0,30.32,North,349,0.0,-999.0,47,-99.99,,,-99.99,,2013-03-24 01:12:00,
2013-03-23 18:22:00,47.0,28.0,30.32,North,349,0.0,-999.0,47,-99.99,,,-99.99,,2013-03-24 01:22:00,
2013-03-23 18:32:00,47.0,29.0,30.32,North,349,0.0,-999.0,50,-99.99,,,-99.99,,2013-03-24 01:32:00,
2013-03-23 18:52:00,46.0,29.0,30.32,North,349,0.0,-999.0,51,-99.99,,,-99.99,,2013-03-24 01:52:00,
2013-03-23 19:02:00,46.0,30.0,30.31,North,349,0.0,-999.0,54,-99.99,,,-99.99,,2013-03-24 02:02:00,
2013-03-23 19:21:00,45.0,32.0,30.31,North,349,0.0,-999.0,59,-99.99,,,-99.99,,2013-03-24 02:21:00,
2013-03-23 19:32:00,44.0,31.0,30.31,North,349,0.0,-999.0,60,-99.99,,,-99.99,,2013-03-24 02:32:00,
2013-03-23 19:52:00,45.0,33.0,30.31,North,349,0.0,-999.0,63,-99.99,,,-99.99,,2013-03-24 02:52:00,
2013-03-23 20:01:00,44.0,32.0,30.31,North,349,0.0,-999.0,62,-99.99,,,-99.99,,2013-03-24 03:01:00,
2013-03-23 20:12:00,44.0,32.0,30.31,North,349,0.0,-999.0,62,-99.99,,,-99.99,,2013-03-24 03:12:00,
2013-03-23 20:22:00,43.0,31.0,30.31,North,349,0.0,-999.0,63,-99.99,,,-99.99,,2013-03-24 03:22:00,
2013-03-23 20:32:00,44.0,33.0,30.31,North,360,0.0,-999.0,64,-99.99,,,-99.99,,2013-03-24 03:32:00,
2013-03-23 20:42:00,44.0,33.0,30.31,North,360,0.0,-999.0,64,-99.99,,,-99.99,,2013-03-24 03:42:00,
2013-03-23 20:53:00,43.0,33.0,30.31,North,360,0.0,-999.0,68,-99.99,,,-99.99,,2013-03-24 03:53:00,
2013-03-23 21:02:00,42.0,33.0,30.32,North,360,0.0,-999.0,71,-99.99,,,-99.99,,2013-03-24 04:02:00,
2013-03-23 21:12:00,42.0,33.0,30.32,North,360,0.0,-999.0,71,-99.99,,,-99.99,,2013-03-24 04:12:00,
2013-03-23 21:22:00,43.0,34.0,30.32,North,360,0.0,-999.0,70,-99.99,,,-99.99,,2013-03-24 04:22:00,
2013-03-23 21:32:00,42.0,34.0,30.32,North,360,0.0,-999.0,72,-99.99,,,-99.99,,2013-03-24 04:32:00,
2013-03-23 21:42:00,42.0,34.0,30.32,North,360,0.0,-999.0,72,-99.99,,,-99.99,,2013-03-24 04:42:00,
2013-03-23 21:52:00,41.0,34.0,30.32,North,360,0.0,-999.0,76,-99.99,,,-99.99,,2013-03-24 04:52:00,
2013-03-23 22:02:00,41.0,34.0,30.32,North,360,0.0,-999.0,76,-99.99,,,-99.99,,2013-03-24 05:02:00,
2013-03-23 22:12:00,41.0,34.0,30.32,North,360,0.0,-999.0,76,-99.99,,,-99.99,,2013-03-24 05:12:00,
2013-03-23 22:22:00,40.0,34.0,30.32,North,360,0.0,-999.0,80,-99.99,,,-99.99,,2013-03-24 05:22:00,
2013-03-23 22:32:00,40.0,35.0,30.32,North,360,0.0,-999.0,82,-99.99,,,-99.99,,2013-03-24 05:32:00,
2013-03-23 22:42:00,40.0,35.0,30.32,North,360,0.0,-999.0,82,-99.99,,,-99.99,,2013-03-24 05:42:00,
2013-03-23 22:52:00,39.0,32.0,30.32,North,360,0.0,-999.0,77,-99.99,,,-99.99,,2013-03-24 05:52:00,
2013-03-23 23:01:00,39.0,32.0,30.32,North,360,0.0,-999.0,76,-99.99,,,-99.99,,2013-03-24 06:01:00,
2013-03-23 23:11:00,39.0,32.0,30.32,North,360,0.0,-999.0,76,-99.99,,,-99.99,,2013-03-24 06:11:00,
2013-03-23 23:21:00,39.0,31.0,30.32,North,360,0.0,-999.0,74,-99.99,,,-99.99,,2013-03-24 06:21:00,
2013-03-23 23:32:00,39.0,30.0,30.32,North,360,0.0,-999.0,71,-99.99,,,-99.99,,2013-03-24 06:32:00,
2013-03-23 23:42:00,39.0,30.0,30.32,North,360,0.0,-999.0,71,-99.99,,,-99.99,,2013-03-24 06:42:00,
2013-03-23 23:52:00,38.0,30.0,30.32,North,360,0.0,-999.0,74,-99.99,,,-99.99,,2013-03-24 06:52:00,